Νεφοσκεπής
Νεφοσκεπής με ασθ. βροχή
Νεφοσκεπής με ασθ. βροχή
Νεφοσκεπής
Νεφοσκεπής με ασθ. βροχή
Νεφοσκεπής με ασθ. βροχή
Νεφοσκεπής
(°C)
10°
10°
10°
10°
10°
10°
(°C)
Ν
Ν
ΝΝΔ
ΝΔ
ΔΝΔ
Δ
ΔΝΔ
(km/h)
8-13
6-11
7-13
7-15
8-17
7-20
8-23
(χιλιοστά)
0
0
0.3
0
0.2
0.2
0
(%)
35
65
65
40
40
40
23

Ανύψωση ήλιου

/ 13.3°
sun-icon
UV 1
07:05
18:22
Φθίνων αμφίκυρτος (φάση σελήνης) (293°)
04:48
11:20

METAR για Ντίσελντορφ (EDDL)

Χρόνος Συνθήκες Θερμοκρασία/
Σημείο δρόσου
Άνεμος Ορατότητα Καιρός Νέφη Πίεση Αλλαγή Ανεπεξέργαστο
MVFR 8°C / 5°C 160º variable 120º to 190º 3kt 7000m Light Rain 1.00mm precipitation Broken Clouds 3100ft
Broken Clouds 3800ft
1013 No Significant change EDDL 050720Z AUTO 16003KT 120V190 7000 -RA BKN031 BKN038 08/05 Q1013 NOSIG
MVFR 8°C / 5°C 150º 5kt 7000m - Overcast 3000ft 1013 No Significant change EDDL 050650Z AUTO 15005KT 7000 OVC030 08/05 Q1013 NOSIG
MVFR 7°C / 5°C 140º 6kt 7000m - Broken Clouds 2900ft
Broken Clouds 4100ft
1013 No Significant change EDDL 050620Z AUTO 14006KT 7000 BKN029 BKN041 07/05 Q1013 NOSIG
MVFR 7°C / 5°C 140º 6kt 7000m - Few Clouds 2900ft
Broken Clouds 4200ft
1013 No Significant change EDDL 050550Z AUTO 14006KT 7000 FEW029 BKN042 07/05 Q1013 NOSIG
MVFR 7°C / 5°C 140º 6kt 7000m - Broken Clouds 4300ft 1013 No Significant change EDDL 050520Z AUTO 14006KT 7000 BKN043 07/05 Q1013 NOSIG
MVFR 6°C / 5°C 120º 4kt 7000m - Few Clouds 3000ft
Broken Clouds 4200ft
1013 No Significant change EDDL 050450Z AUTO 12004KT 7000 FEW030 BKN042 06/05 Q1013 NOSIG
MVFR 6°C / 5°C 120º 4kt 6000m - Few Clouds 4200ft 1012 Temporary: Visibility 4000. patches Fog . EDDL 050420Z AUTO 12004KT 6000 FEW042 06/05 Q1012 TEMPO 4000 BCFG
MVFR 6°C / 5°C 90º 3kt 6000m - Clear 1012 Temporary: Visibility 4000. patches Fog . EDDL 050350Z AUTO 09003KT 6000 NSC 06/05 Q1012 TEMPO 4000 BCFG
MVFR 6°C / 5°C 100º 4kt 6000m - Clear 1012 Temporary: Visibility 4000. patches Fog . EDDL 050320Z AUTO 10004KT 6000 NSC 06/05 Q1012 TEMPO 4000 BCFG
MVFR 6°C / 5°C 130º 5kt 6000m - Clear 1012 Temporary: Visibility 4000. Mist . EDDL 050250Z AUTO 13005KT 6000 NSC 06/05 Q1012 TEMPO 4000 BR
MVFR 5°C / 4°C 110º 5kt 6000m - Broken Clouds 4100ft 1012 Temporary: Visibility 4000. Mist . EDDL 050220Z AUTO 11005KT 6000 BKN041 05/04 Q1012 TEMPO 4000 BR
MVFR 4°C / 4°C 100º 5kt 6000m - Broken Clouds 4200ft 1012 Temporary: Visibility 4000. Mist . EDDL 050150Z AUTO 10005KT 6000 BKN042 04/04 Q1012 TEMPO 4000 BR
MVFR 4°C / 3°C 110º 4kt 6000m - Few Clouds 2500ft
Scattered Clouds 4400ft
1013 Temporary: Visibility 4000. Mist . EDDL 050120Z AUTO 11004KT 6000 FEW025 SCT044 04/03 Q1013 TEMPO 4000 BR
MVFR 5°C / 4°C 150º 4kt 7000m - Clear 1012 Temporary: Visibility 4000. Mist . EDDL 050050Z AUTO 15004KT 7000 NSC 05/04 Q1012 TEMPO 4000 BR
MVFR 5°C / 4°C 150º variable 120º to 180º 3kt 7000m - Clear 1012 Temporary: Visibility 4000. Mist . EDDL 050020Z AUTO 15003KT 120V180 7000 NSC 05/04 Q1012 TEMPO 4000 BR
MVFR 5°C / 3°C 110º 3kt 6000m - Clear 1012 Temporary: Visibility 4000. Mist . EDDL 042350Z AUTO 11003KT 6000 NSC 05/03 Q1012 TEMPO 4000 BR
MVFR 6°C / 5°C 120º 4kt 7000m - Clear 1012 Temporary: Visibility 4000. Mist . EDDL 042320Z AUTO 12004KT 7000 NSC 06/05 Q1012 TEMPO 4000 BR
MVFR 7°C / 5°C 120º 3kt 7000m - Clear 1012 Temporary: Visibility 4000. Mist . EDDL 042250Z AUTO 12003KT 7000 NSC 07/05 Q1012 TEMPO 4000 BR
MVFR 7°C / 5°C 110º 3kt 7000m - Clear 1012 Temporary: Visibility 4000. Mist . EDDL 042220Z AUTO 11003KT 7000 NSC 07/05 Q1012 TEMPO 4000 BR
MVFR 8°C / 5°C 70º 3kt 7000m - Few Clouds 2500ft 1013 Temporary: Visibility 4000. Mist . EDDL 042150Z AUTO 07003KT 7000 FEW025 08/05 Q1013 TEMPO 4000 BR
MVFR 8°C / 5°C 100º variable 070º to 160º 3kt 8000m - Few Clouds 2500ft
Scattered Clouds 4800ft
1013 No Significant change EDDL 042120Z AUTO 10003KT 070V160 8000 FEW025 SCT048 08/05 Q1013 NOSIG
MVFR 8°C / 5°C 100º 2kt 8000m - Few Clouds 2300ft
Scattered Clouds 4800ft
1013 No Significant change EDDL 042050Z AUTO 10002KT 8000 FEW023 SCT048 08/05 Q1013 NOSIG
VFR 8°C / 5°C 110º 2kt 9700m - Clouds and Visibility OK 1012 No Significant change EDDL 042020Z AUTO 11002KT CAVOK 08/05 Q1012 NOSIG
VFR 8°C / 5°C 110º 4kt 9700m - Clouds and Visibility OK 1012 No Significant change EDDL 041950Z AUTO 11004KT CAVOK 08/05 Q1012 NOSIG

MVFR

8°C / 5°C

[Περισσότερο]
Άνεμος 160º variable 120º to 190º 3kt
Ορατότητα 7000m
Καιρός Light Rain 1.00mm precipitation
Νέφη Broken Clouds 3100ft
Broken Clouds 3800ft
Πίεση 1013
Αλλαγή No Significant change
Ανεπεξέργαστο EDDL 050720Z AUTO 16003KT 120V190 7000 -RA BKN031 BKN038 08/05 Q1013 NOSIG

MVFR

8°C / 5°C

[Περισσότερο]
Άνεμος 150º 5kt
Ορατότητα 7000m
Καιρός -
Νέφη Overcast 3000ft
Πίεση 1013
Αλλαγή No Significant change
Ανεπεξέργαστο EDDL 050650Z AUTO 15005KT 7000 OVC030 08/05 Q1013 NOSIG

MVFR

7°C / 5°C

[Περισσότερο]
Άνεμος 140º 6kt
Ορατότητα 7000m
Καιρός -
Νέφη Broken Clouds 2900ft
Broken Clouds 4100ft
Πίεση 1013
Αλλαγή No Significant change
Ανεπεξέργαστο EDDL 050620Z AUTO 14006KT 7000 BKN029 BKN041 07/05 Q1013 NOSIG

MVFR

7°C / 5°C

[Περισσότερο]
Άνεμος 140º 6kt
Ορατότητα 7000m
Καιρός -
Νέφη Few Clouds 2900ft
Broken Clouds 4200ft
Πίεση 1013
Αλλαγή No Significant change
Ανεπεξέργαστο EDDL 050550Z AUTO 14006KT 7000 FEW029 BKN042 07/05 Q1013 NOSIG

MVFR

7°C / 5°C

[Περισσότερο]
Άνεμος 140º 6kt
Ορατότητα 7000m
Καιρός -
Νέφη Broken Clouds 4300ft
Πίεση 1013
Αλλαγή No Significant change
Ανεπεξέργαστο EDDL 050520Z AUTO 14006KT 7000 BKN043 07/05 Q1013 NOSIG

MVFR

6°C / 5°C

[Περισσότερο]
Άνεμος 120º 4kt
Ορατότητα 7000m
Καιρός -
Νέφη Few Clouds 3000ft
Broken Clouds 4200ft
Πίεση 1013
Αλλαγή No Significant change
Ανεπεξέργαστο EDDL 050450Z AUTO 12004KT 7000 FEW030 BKN042 06/05 Q1013 NOSIG

MVFR

6°C / 5°C

[Περισσότερο]
Άνεμος 120º 4kt
Ορατότητα 6000m
Καιρός -
Νέφη Few Clouds 4200ft
Πίεση 1012
Αλλαγή Temporary: Visibility 4000. patches Fog .
Ανεπεξέργαστο EDDL 050420Z AUTO 12004KT 6000 FEW042 06/05 Q1012 TEMPO 4000 BCFG

MVFR

6°C / 5°C

[Περισσότερο]
Άνεμος 90º 3kt
Ορατότητα 6000m
Καιρός -
Νέφη Clear
Πίεση 1012
Αλλαγή Temporary: Visibility 4000. patches Fog .
Ανεπεξέργαστο EDDL 050350Z AUTO 09003KT 6000 NSC 06/05 Q1012 TEMPO 4000 BCFG

MVFR

6°C / 5°C

[Περισσότερο]
Άνεμος 100º 4kt
Ορατότητα 6000m
Καιρός -
Νέφη Clear
Πίεση 1012
Αλλαγή Temporary: Visibility 4000. patches Fog .
Ανεπεξέργαστο EDDL 050320Z AUTO 10004KT 6000 NSC 06/05 Q1012 TEMPO 4000 BCFG

MVFR

6°C / 5°C

[Περισσότερο]
Άνεμος 130º 5kt
Ορατότητα 6000m
Καιρός -
Νέφη Clear
Πίεση 1012
Αλλαγή Temporary: Visibility 4000. Mist .
Ανεπεξέργαστο EDDL 050250Z AUTO 13005KT 6000 NSC 06/05 Q1012 TEMPO 4000 BR

MVFR

5°C / 4°C

[Περισσότερο]
Άνεμος 110º 5kt
Ορατότητα 6000m
Καιρός -
Νέφη Broken Clouds 4100ft
Πίεση 1012
Αλλαγή Temporary: Visibility 4000. Mist .
Ανεπεξέργαστο EDDL 050220Z AUTO 11005KT 6000 BKN041 05/04 Q1012 TEMPO 4000 BR

MVFR

4°C / 4°C

[Περισσότερο]
Άνεμος 100º 5kt
Ορατότητα 6000m
Καιρός -
Νέφη Broken Clouds 4200ft
Πίεση 1012
Αλλαγή Temporary: Visibility 4000. Mist .
Ανεπεξέργαστο EDDL 050150Z AUTO 10005KT 6000 BKN042 04/04 Q1012 TEMPO 4000 BR

MVFR

4°C / 3°C

[Περισσότερο]
Άνεμος 110º 4kt
Ορατότητα 6000m
Καιρός -
Νέφη Few Clouds 2500ft
Scattered Clouds 4400ft
Πίεση 1013
Αλλαγή Temporary: Visibility 4000. Mist .
Ανεπεξέργαστο EDDL 050120Z AUTO 11004KT 6000 FEW025 SCT044 04/03 Q1013 TEMPO 4000 BR

MVFR

5°C / 4°C

[Περισσότερο]
Άνεμος 150º 4kt
Ορατότητα 7000m
Καιρός -
Νέφη Clear
Πίεση 1012
Αλλαγή Temporary: Visibility 4000. Mist .
Ανεπεξέργαστο EDDL 050050Z AUTO 15004KT 7000 NSC 05/04 Q1012 TEMPO 4000 BR

MVFR

5°C / 4°C

[Περισσότερο]
Άνεμος 150º variable 120º to 180º 3kt
Ορατότητα 7000m
Καιρός -
Νέφη Clear
Πίεση 1012
Αλλαγή Temporary: Visibility 4000. Mist .
Ανεπεξέργαστο EDDL 050020Z AUTO 15003KT 120V180 7000 NSC 05/04 Q1012 TEMPO 4000 BR

MVFR

5°C / 3°C

[Περισσότερο]
Άνεμος 110º 3kt
Ορατότητα 6000m
Καιρός -
Νέφη Clear
Πίεση 1012
Αλλαγή Temporary: Visibility 4000. Mist .
Ανεπεξέργαστο EDDL 042350Z AUTO 11003KT 6000 NSC 05/03 Q1012 TEMPO 4000 BR

MVFR

6°C / 5°C

[Περισσότερο]
Άνεμος 120º 4kt
Ορατότητα 7000m
Καιρός -
Νέφη Clear
Πίεση 1012
Αλλαγή Temporary: Visibility 4000. Mist .
Ανεπεξέργαστο EDDL 042320Z AUTO 12004KT 7000 NSC 06/05 Q1012 TEMPO 4000 BR

MVFR

7°C / 5°C

[Περισσότερο]
Άνεμος 120º 3kt
Ορατότητα 7000m
Καιρός -
Νέφη Clear
Πίεση 1012
Αλλαγή Temporary: Visibility 4000. Mist .
Ανεπεξέργαστο EDDL 042250Z AUTO 12003KT 7000 NSC 07/05 Q1012 TEMPO 4000 BR

MVFR

7°C / 5°C

[Περισσότερο]
Άνεμος 110º 3kt
Ορατότητα 7000m
Καιρός -
Νέφη Clear
Πίεση 1012
Αλλαγή Temporary: Visibility 4000. Mist .
Ανεπεξέργαστο EDDL 042220Z AUTO 11003KT 7000 NSC 07/05 Q1012 TEMPO 4000 BR

MVFR

8°C / 5°C

[Περισσότερο]
Άνεμος 70º 3kt
Ορατότητα 7000m
Καιρός -
Νέφη Few Clouds 2500ft
Πίεση 1013
Αλλαγή Temporary: Visibility 4000. Mist .
Ανεπεξέργαστο EDDL 042150Z AUTO 07003KT 7000 FEW025 08/05 Q1013 TEMPO 4000 BR

MVFR

8°C / 5°C

[Περισσότερο]
Άνεμος 100º variable 070º to 160º 3kt
Ορατότητα 8000m
Καιρός -
Νέφη Few Clouds 2500ft
Scattered Clouds 4800ft
Πίεση 1013
Αλλαγή No Significant change
Ανεπεξέργαστο EDDL 042120Z AUTO 10003KT 070V160 8000 FEW025 SCT048 08/05 Q1013 NOSIG

MVFR

8°C / 5°C

[Περισσότερο]
Άνεμος 100º 2kt
Ορατότητα 8000m
Καιρός -
Νέφη Few Clouds 2300ft
Scattered Clouds 4800ft
Πίεση 1013
Αλλαγή No Significant change
Ανεπεξέργαστο EDDL 042050Z AUTO 10002KT 8000 FEW023 SCT048 08/05 Q1013 NOSIG

VFR

8°C / 5°C

[Περισσότερο]
Άνεμος 110º 2kt
Ορατότητα 9700m
Καιρός -
Νέφη Clouds and Visibility OK
Πίεση 1012
Αλλαγή No Significant change
Ανεπεξέργαστο EDDL 042020Z AUTO 11002KT CAVOK 08/05 Q1012 NOSIG

VFR

8°C / 5°C

[Περισσότερο]
Άνεμος 110º 4kt
Ορατότητα 9700m
Καιρός -
Νέφη Clouds and Visibility OK
Πίεση 1012
Αλλαγή No Significant change
Ανεπεξέργαστο EDDL 041950Z AUTO 11004KT CAVOK 08/05 Q1012 NOSIG

TAF για Ντίσελντορφ (EDDL)

From till


From till Wind 3kt. Visibility 7000m. Broken Clouds 3000ft.
Temporarly from till Wind 150º 5kt.
Temporarly from till Visibility 3500m. Light Rain Light Drizzle Mist .
Temporarly from till Wind 240º 5kt.
Temporarly from till Visibility 3500m. Mist . Broken Clouds 800ft.
Becoming from till
Temporarly from till Visibility 2000m. Mist . Broken Clouds 400ft.
Becoming from till

Ανεπεξέργαστο: TAF EDDL 050500Z 0506/0612 VRB03KT 7000 BKN030 TEMPO 0506/0508 15005KT TEMPO 0506/0510 3500 -RADZ BR TEMPO 0510/0516 24005KT TEMPO 0603/0604 3500 BR BKN008 BECMG 0604/0606 3000 BR BKN007 TEMPO 0606/0610 2000 BR BKN004 BECMG 0610/0612 7000 BKN015

rainNOW: Nowcast βροχής για Ντίσελντορφ και περιφέρεια (25km ακτίνα)

0.0 χιλιοστά
0.0 χιλιοστά
0.0 χιλιοστά
0.0 χιλιοστά
0.0 χιλιοστά
0.1 χιλιοστά
0.1 χιλιοστά
0.1 χιλιοστά
0.2 χιλιοστά
0.3 χιλιοστά
0.4 χιλιοστά
0.3 χιλιοστά

Ραντάρ και πρόγνωση υετού μικρής διάρκειας για Ντίσελντορφ

Ψιλοβρέχει
Ελαφριά
Μέτρια
Έντονη
Πολύ έντονες
Χαλάζι

Ο δείκτης θέσης τοποθετείται στο Ντίσελντορφ. Αυτό το κινούμενο σχέδιο δείχνει το ραντάρ βροχόπτωσης για το επιλεγμένο χρονικό εύρος, καθώς και μια πρόγνωση 2h. Οι πορτοκαλί σταυροί υποδεικνύουν κεραυνούς. Δεδομένα που παρέχονται από nowcast.de (διαθέσιμα στις ΗΠΑ, την Ευρώπη, την Αυστραλία). Το ψιλόβροχο ή το ελαφρύ χιόνι μπορεί να είναι αόρατο για το ραντάρ. Η ένταση της βροχόπτωσης είναι χρωματικά κωδικοποιημένη και κυμαίνεται από τυρκουάζ έως κόκκινο.

Τρέχουσες εικόνες δορυφόρου και βροχής για Ντίσελντορφ, Γερμανία

Η ένδειξη τοποθεσίας τοποθετείται στο Ντίσελντορφ. [Περισσότερο]

Οι δορυφορικές εικόνες σε πραγματικό χρόνο συνδυάζουν ορατό φως κατά τη διάρκεια της ημέρας με υπέρυθρη ακτινοβολία κατά τη διάρκεια της νύχτας. Κατά τη διάρκεια της νύχτας, η εικόνα δεν είναι σκοτεινή μιας και η υπέρυθρη ακτινοβολία μπορεί να εντοπίσει τις διαφορές στη θερμοκρασία. Δυστυχώς, είναι δύσκολο να ξεχωρίσουν οι χαμηλές νεφώσεις και η ομίχλη από τις θερμοκρασίες εδάφους και έτσι μπορεί να είναι σχετικά αόρατα κατά τη διάρκεια της νύχτας. Οι εικόνες από τον δορυφόρο Meteosat για την Ευρώπη ενημερώνονται σε πραγματικό χρόνο κάθε 5 λεπτά. Οι εικόνες από τους δορυφόρους GOES-16/GOES-17 (Βόρεια & Λατινική Αμερική) και Himawari (Ασία) ενημερώνονται κάθε 10 λεπτά.

Η βροχόπτωση εκτιμάται από ραντάρ και δορυφόρους. Οι εκτιμήσεις βροχόπτωσης από τους δορυφόρους είναι λιγότερο ακριβείς τη νύχτα απ' ό,τι κατά τη διάρκεια της ημέρας.

© 2024 meteoblue, NOAA Satellites GOES-16 and EUMETSAT. Δεδομένα αστραπών παρεχόμενα από nowcast.

Επιστροφή στην κορυφή
×
Γεια σου,
φαίνεται ότι χρησιμοποιείς ένα πρόγραμμα αποκλεισμού διαφημίσεων.

Η διαφήμιση είναι απαραίτητη για τη διατήρηση του δωρεάν ιστότοπού μας με μοναδική λεπτομέρεια και ακρίβεια.

Παρακαλούμε καταχωρήστε το www.meteoblue.com στη λευκή λίστα του ad blocker σας ή σκεφτείτε να αγοράσετε ένα από τα προϊόντα μας:

Έχετε ήδη συνδρομή;
Τότε παρακαλούμε σύνδεση.